sensor_id;sensor_type;location;lat;lon;timestamp;temperature;humidity
10354;DHT22;5223;50.924;13.338;2022-09-27T00:01:09;11.70;99.90
10354;DHT22;5223;50.924;13.338;2022-09-27T00:03:37;11.70;99.90
10354;DHT22;5223;50.924;13.338;2022-09-27T00:06:07;11.70;99.90
10354;DHT22;5223;50.924;13.338;2022-09-27T00:08:35;11.70;99.90
10354;DHT22;5223;50.924;13.338;2022-09-27T00:11:04;11.70;99.90
10354;DHT22;5223;50.924;13.338;2022-09-27T00:13:32;11.70;99.90
10354;DHT22;5223;50.924;13.338;2022-09-27T00:16:01;11.80;99.90
10354;DHT22;5223;50.924;13.338;2022-09-27T00:18:30;11.80;99.90
10354;DHT22;5223;50.924;13.338;2022-09-27T00:21:03;11.70;99.90
10354;DHT22;5223;50.924;13.338;2022-09-27T00:23:31;11.70;99.90
10354;DHT22;5223;50.924;13.338;2022-09-27T00:25:59;11.80;99.90
10354;DHT22;5223;50.924;13.338;2022-09-27T00:28:27;11.70;99.90
10354;DHT22;5223;50.924;13.338;2022-09-27T00:30:57;11.70;99.90
10354;DHT22;5223;50.924;13.338;2022-09-27T00:33:24;11.70;99.90
10354;DHT22;5223;50.924;13.338;2022-09-27T00:35:52;11.80;99.90
10354;DHT22;5223;50.924;13.338;2022-09-27T00:38:19;11.80;99.90
10354;DHT22;5223;50.924;13.338;2022-09-27T00:40:46;11.80;99.90
10354;DHT22;5223;50.924;13.338;2022-09-27T00:43:16;11.70;99.90
10354;DHT22;5223;50.924;13.338;2022-09-27T00:45:47;11.80;99.90
10354;DHT22;5223;50.924;13.338;2022-09-27T00:48:18;11.70;99.90
10354;DHT22;5223;50.924;13.338;2022-09-27T00:50:50;11.70;99.90
10354;DHT22;5223;50.924;13.338;2022-09-27T00:53:25;11.70;99.90
10354;DHT22;5223;50.924;13.338;2022-09-27T00:55:59;11.70;99.90
10354;DHT22;5223;50.924;13.338;2022-09-27T00:58:29;11.70;99.90
10354;DHT22;5223;50.924;13.338;2022-09-27T01:01:00;11.60;99.90
10354;DHT22;5223;50.924;13.338;2022-09-27T01:03:35;11.60;99.90
10354;DHT22;5223;50.924;13.338;2022-09-27T01:06:04;11.60;99.90
10354;DHT22;5223;50.924;13.338;2022-09-27T01:08:33;11.60;99.90
10354;DHT22;5223;50.924;13.338;2022-09-27T01:11:19;11.60;99.90
10354;DHT22;5223;50.924;13.338;2022-09-27T01:14:01;11.60;99.90
10354;DHT22;5223;50.924;13.338;2022-09-27T01:16:39;11.60;99.90
10354;DHT22;5223;50.924;13.338;2022-09-27T01:19:21;11.60;99.90
10354;DHT22;5223;50.924;13.338;2022-09-27T01:21:58;11.60;99.90
10354;DHT22;5223;50.924;13.338;2022-09-27T01:24:51;11.60;99.90
10354;DHT22;5223;50.924;13.338;2022-09-27T01:28:04;11.50;99.90
10354;DHT22;5223;50.924;13.338;2022-09-27T01:30:40;11.50;99.90
10354;DHT22;5223;50.924;13.338;2022-09-27T01:33:24;11.50;99.90
10354;DHT22;5223;50.924;13.338;2022-09-27T01:36:16;11.50;99.90
10354;DHT22;5223;50.924;13.338;2022-09-27T01:38:53;11.50;99.90
10354;DHT22;5223;50.924;13.338;2022-09-27T01:41:30;11.50;99.90
10354;DHT22;5223;50.924;13.338;2022-09-27T01:44:01;11.50;99.90
10354;DHT22;5223;50.924;13.338;2022-09-27T01:46:35;11.50;99.90
10354;DHT22;5223;50.924;13.338;2022-09-27T01:49:07;11.40;99.90
10354;DHT22;5223;50.924;13.338;2022-09-27T01:51:39;11.50;99.90
10354;DHT22;5223;50.924;13.338;2022-09-27T01:54:12;11.40;99.90
10354;DHT22;5223;50.924;13.338;2022-09-27T01:56:46;11.50;99.90
10354;DHT22;5223;50.924;13.338;2022-09-27T01:59:16;11.50;99.90
10354;DHT22;5223;50.924;13.338;2022-09-27T02:01:49;11.50;99.90
10354;DHT22;5223;50.924;13.338;2022-09-27T02:04:21;11.50;99.90
10354;DHT22;5223;50.924;13.338;2022-09-27T02:06:57;11.50;99.90
10354;DHT22;5223;50.924;13.338;2022-09-27T02:09:31;11.50;99.90
10354;DHT22;5223;50.924;13.338;2022-09-27T02:12:04;11.50;99.90
10354;DHT22;5223;50.924;13.338;2022-09-27T02:14:34;11.40;99.90
10354;DHT22;5223;50.924;13.338;2022-09-27T02:17:08;11.40;99.90
10354;DHT22;5223;50.924;13.338;2022-09-27T02:19:42;11.30;99.90
10354;DHT22;5223;50.924;13.338;2022-09-27T02:22:16;11.20;99.90
10354;DHT22;5223;50.924;13.338;2022-09-27T02:24:52;11.20;99.90
10354;DHT22;5223;50.924;13.338;2022-09-27T02:27:22;11.20;99.90
10354;DHT22;5223;50.924;13.338;2022-09-27T02:29:55;11.10;99.90
10354;DHT22;5223;50.924;13.338;2022-09-27T02:32:25;11.10;99.90
10354;DHT22;5223;50.924;13.338;2022-09-27T02:34:54;11.10;99.90
10354;DHT22;5223;50.924;13.338;2022-09-27T02:37:24;11.10;99.90
10354;DHT22;5223;50.924;13.338;2022-09-27T02:39:53;11.10;99.90
10354;DHT22;5223;50.924;13.338;2022-09-27T02:42:22;11.00;99.90
10354;DHT22;5223;50.924;13.338;2022-09-27T02:44:50;11.00;99.90
10354;DHT22;5223;50.924;13.338;2022-09-27T02:50:42;11.00;99.90
10354;DHT22;5223;50.924;13.338;2022-09-27T02:53:20;11.00;99.90
10354;DHT22;5223;50.924;13.338;2022-09-27T02:55:51;11.00;99.90
10354;DHT22;5223;50.924;13.338;2022-09-27T02:58:30;11.00;99.90
10354;DHT22;5223;50.924;13.338;2022-09-27T03:01:04;10.90;99.90
10354;DHT22;5223;50.924;13.338;2022-09-27T03:03:41;10.90;99.90
10354;DHT22;5223;50.924;13.338;2022-09-27T03:06:12;10.90;99.90
10354;DHT22;5223;50.924;13.338;2022-09-27T03:08:40;10.90;99.90
10354;DHT22;5223;50.924;13.338;2022-09-27T03:11:09;10.90;99.90
10354;DHT22;5223;50.924;13.338;2022-09-27T03:13:38;10.90;99.90
10354;DHT22;5223;50.924;13.338;2022-09-27T03:16:07;11.00;99.90
10354;DHT22;5223;50.924;13.338;2022-09-27T03:18:37;11.00;99.90
10354;DHT22;5223;50.924;13.338;2022-09-27T03:21:04;11.00;99.90
10354;DHT22;5223;50.924;13.338;2022-09-27T03:23:31;11.10;99.90
10354;DHT22;5223;50.924;13.338;2022-09-27T03:25:58;11.20;99.90
10354;DHT22;5223;50.924;13.338;2022-09-27T03:28:25;11.20;99.90
10354;DHT22;5223;50.924;13.338;2022-09-27T03:30:54;11.20;99.90
10354;DHT22;5223;50.924;13.338;2022-09-27T03:33:21;11.20;99.90
10354;DHT22;5223;50.924;13.338;2022-09-27T03:35:53;11.30;99.90
10354;DHT22;5223;50.924;13.338;2022-09-27T03:38:20;11.20;99.90
10354;DHT22;5223;50.924;13.338;2022-09-27T03:40:50;11.20;99.90
10354;DHT22;5223;50.924;13.338;2022-09-27T03:43:17;11.20;99.90
10354;DHT22;5223;50.924;13.338;2022-09-27T03:45:44;11.20;99.90
10354;DHT22;5223;50.924;13.338;2022-09-27T03:48:12;11.10;99.90
10354;DHT22;5223;50.924;13.338;2022-09-27T03:50:39;11.10;99.90
10354;DHT22;5223;50.924;13.338;2022-09-27T03:53:08;11.00;99.90
10354;DHT22;5223;50.924;13.338;2022-09-27T03:55:35;11.00;99.90
10354;DHT22;5223;50.924;13.338;2022-09-27T03:58:02;10.90;99.90
10354;DHT22;5223;50.924;13.338;2022-09-27T04:00:29;10.90;99.90
10354;DHT22;5223;50.924;13.338;2022-09-27T04:02:57;10.80;99.90
10354;DHT22;5223;50.924;13.338;2022-09-27T04:05:25;10.80;99.90
10354;DHT22;5223;50.924;13.338;2022-09-27T04:07:52;10.80;99.90
10354;DHT22;5223;50.924;13.338;2022-09-27T04:10:22;10.80;99.90
10354;DHT22;5223;50.924;13.338;2022-09-27T04:12:49;10.80;99.90
10354;DHT22;5223;50.924;13.338;2022-09-27T04:15:16;10.80;99.90
10354;DHT22;5223;50.924;13.338;2022-09-27T04:17:43;10.80;99.90
10354;DHT22;5223;50.924;13.338;2022-09-27T04:20:10;10.80;99.90
10354;DHT22;5223;50.924;13.338;2022-09-27T04:22:39;10.80;99.90
10354;DHT22;5223;50.924;13.338;2022-09-27T04:25:08;10.80;99.90
10354;DHT22;5223;50.924;13.338;2022-09-27T04:27:39;10.90;99.90
10354;DHT22;5223;50.924;13.338;2022-09-27T04:30:10;10.90;99.90
10354;DHT22;5223;50.924;13.338;2022-09-27T04:32:40;10.90;99.90
10354;DHT22;5223;50.924;13.338;2022-09-27T04:35:08;10.90;99.90
10354;DHT22;5223;50.924;13.338;2022-09-27T04:37:52;10.90;99.90
10354;DHT22;5223;50.924;13.338;2022-09-27T04:40:19;10.90;99.90
10354;DHT22;5223;50.924;13.338;2022-09-27T04:42:48;10.80;99.90
10354;DHT22;5223;50.924;13.338;2022-09-27T04:45:15;10.80;99.90
10354;DHT22;5223;50.924;13.338;2022-09-27T04:47:43;10.70;99.90
10354;DHT22;5223;50.924;13.338;2022-09-27T04:50:10;10.60;99.90
10354;DHT22;5223;50.924;13.338;2022-09-27T04:52:37;10.60;99.90
10354;DHT22;5223;50.924;13.338;2022-09-27T04:55:06;10.40;99.90
10354;DHT22;5223;50.924;13.338;2022-09-27T04:57:33;10.40;99.90
10354;DHT22;5223;50.924;13.338;2022-09-27T05:00:04;10.40;99.90
10354;DHT22;5223;50.924;13.338;2022-09-27T05:02:31;10.40;99.90
10354;DHT22;5223;50.924;13.338;2022-09-27T05:04:58;10.30;99.90
10354;DHT22;5223;50.924;13.338;2022-09-27T05:07:25;10.20;99.90
10354;DHT22;5223;50.924;13.338;2022-09-27T05:09:52;10.20;99.90
10354;DHT22;5223;50.924;13.338;2022-09-27T05:12:19;10.20;99.90
10354;DHT22;5223;50.924;13.338;2022-09-27T05:14:47;10.10;99.90
10354;DHT22;5223;50.924;13.338;2022-09-27T05:17:16;10.10;99.90
10354;DHT22;5223;50.924;13.338;2022-09-27T05:19:43;10.20;99.90
10354;DHT22;5223;50.924;13.338;2022-09-27T05:22:12;10.10;99.90
10354;DHT22;5223;50.924;13.338;2022-09-27T05:24:38;10.20;99.90
10354;DHT22;5223;50.924;13.338;2022-09-27T05:27:07;10.20;99.90
10354;DHT22;5223;50.924;13.338;2022-09-27T05:29:36;10.20;99.90
10354;DHT22;5223;50.924;13.338;2022-09-27T05:32:03;10.20;99.90
10354;DHT22;5223;50.924;13.338;2022-09-27T05:34:32;10.20;99.90
10354;DHT22;5223;50.924;13.338;2022-09-27T05:36:59;10.30;99.90
10354;DHT22;5223;50.924;13.338;2022-09-27T05:39:27;10.20;99.90
10354;DHT22;5223;50.924;13.338;2022-09-27T05:41:54;10.20;99.90
10354;DHT22;5223;50.924;13.338;2022-09-27T05:44:22;10.20;99.90
10354;DHT22;5223;50.924;13.338;2022-09-27T05:46:50;10.20;99.90
10354;DHT22;5223;50.924;13.338;2022-09-27T05:49:17;10.20;99.90
10354;DHT22;5223;50.924;13.338;2022-09-27T05:51:50;10.20;99.90
10354;DHT22;5223;50.924;13.338;2022-09-27T05:54:17;10.20;99.90
10354;DHT22;5223;50.924;13.338;2022-09-27T05:56:45;10.20;99.90
10354;DHT22;5223;50.924;13.338;2022-09-27T05:59:12;10.10;99.90
10354;DHT22;5223;50.924;13.338;2022-09-27T06:01:40;10.20;99.90
10354;DHT22;5223;50.924;13.338;2022-09-27T06:04:13;10.20;99.90
10354;DHT22;5223;50.924;13.338;2022-09-27T06:06:40;10.30;99.90
10354;DHT22;5223;50.924;13.338;2022-09-27T06:09:13;10.40;99.90
10354;DHT22;5223;50.924;13.338;2022-09-27T06:11:41;10.40;99.90
10354;DHT22;5223;50.924;13.338;2022-09-27T06:14:12;10.40;99.90
10354;DHT22;5223;50.924;13.338;2022-09-27T06:16:42;10.50;99.90
10354;DHT22;5223;50.924;13.338;2022-09-27T06:19:10;10.50;99.90
10354;DHT22;5223;50.924;13.338;2022-09-27T06:21:37;10.50;99.90
10354;DHT22;5223;50.924;13.338;2022-09-27T06:24:04;10.50;99.90
10354;DHT22;5223;50.924;13.338;2022-09-27T06:26:33;10.60;99.90
10354;DHT22;5223;50.924;13.338;2022-09-27T06:29:01;10.50;99.90
10354;DHT22;5223;50.924;13.338;2022-09-27T06:31:30;10.50;99.90
10354;DHT22;5223;50.924;13.338;2022-09-27T06:33:59;10.60;99.90
10354;DHT22;5223;50.924;13.338;2022-09-27T06:36:26;10.60;99.90
10354;DHT22;5223;50.924;13.338;2022-09-27T06:38:53;10.70;99.90
10354;DHT22;5223;50.924;13.338;2022-09-27T06:41:21;10.90;99.90
10354;DHT22;5223;50.924;13.338;2022-09-27T06:43:51;11.10;99.90
10354;DHT22;5223;50.924;13.338;2022-09-27T06:46:20;11.10;99.90
10354;DHT22;5223;50.924;13.338;2022-09-27T06:48:49;11.10;99.90
10354;DHT22;5223;50.924;13.338;2022-09-27T06:51:17;11.20;99.90
10354;DHT22;5223;50.924;13.338;2022-09-27T06:53:44;11.10;99.90
10354;DHT22;5223;50.924;13.338;2022-09-27T06:56:11;11.20;99.90
10354;DHT22;5223;50.924;13.338;2022-09-27T06:58:38;11.40;99.90
10354;DHT22;5223;50.924;13.338;2022-09-27T07:01:31;11.30;99.90
10354;DHT22;5223;50.924;13.338;2022-09-27T07:04:00;11.30;99.90
10354;DHT22;5223;50.924;13.338;2022-09-27T07:06:27;11.40;99.90
10354;DHT22;5223;50.924;13.338;2022-09-27T07:08:55;11.40;99.90
10354;DHT22;5223;50.924;13.338;2022-09-27T07:11:24;11.40;99.90
10354;DHT22;5223;50.924;13.338;2022-09-27T07:13:51;11.50;99.90
10354;DHT22;5223;50.924;13.338;2022-09-27T07:16:21;11.40;99.90
10354;DHT22;5223;50.924;13.338;2022-09-27T07:18:51;11.50;99.90
10354;DHT22;5223;50.924;13.338;2022-09-27T07:21:18;11.50;99.90
10354;DHT22;5223;50.924;13.338;2022-09-27T07:23:45;11.30;99.90
10354;DHT22;5223;50.924;13.338;2022-09-27T07:26:13;11.30;99.90
10354;DHT22;5223;50.924;13.338;2022-09-27T07:28:40;11.30;99.90
10354;DHT22;5223;50.924;13.338;2022-09-27T07:31:13;11.20;99.90
10354;DHT22;5223;50.924;13.338;2022-09-27T07:33:41;11.10;99.90
10354;DHT22;5223;50.924;13.338;2022-09-27T07:36:12;11.10;99.90
10354;DHT22;5223;50.924;13.338;2022-09-27T07:38:39;11.00;99.90
10354;DHT22;5223;50.924;13.338;2022-09-27T07:41:08;10.90;99.90
10354;DHT22;5223;50.924;13.338;2022-09-27T07:43:36;10.80;99.90
10354;DHT22;5223;50.924;13.338;2022-09-27T07:46:04;10.80;99.90
10354;DHT22;5223;50.924;13.338;2022-09-27T07:48:33;10.80;99.90
10354;DHT22;5223;50.924;13.338;2022-09-27T07:51:00;10.90;99.90
10354;DHT22;5223;50.924;13.338;2022-09-27T07:53:38;10.90;99.90
10354;DHT22;5223;50.924;13.338;2022-09-27T07:56:09;11.00;99.90
10354;DHT22;5223;50.924;13.338;2022-09-27T07:58:36;11.20;99.90
10354;DHT22;5223;50.924;13.338;2022-09-27T08:01:05;11.40;99.90
10354;DHT22;5223;50.924;13.338;2022-09-27T08:03:32;12.00;99.90
10354;DHT22;5223;50.924;13.338;2022-09-27T08:06:02;12.50;99.90
10354;DHT22;5223;50.924;13.338;2022-09-27T08:08:30;12.50;99.90
10354;DHT22;5223;50.924;13.338;2022-09-27T08:11:09;12.30;99.90
10354;DHT22;5223;50.924;13.338;2022-09-27T08:13:39;12.70;99.90
10354;DHT22;5223;50.924;13.338;2022-09-27T08:16:09;12.60;99.90
10354;DHT22;5223;50.924;13.338;2022-09-27T08:18:43;13.80;99.90
10354;DHT22;5223;50.924;13.338;2022-09-27T08:21:16;14.60;99.90
10354;DHT22;5223;50.924;13.338;2022-09-27T08:23:43;14.00;99.90
10354;DHT22;5223;50.924;13.338;2022-09-27T08:26:13;14.30;99.90
10354;DHT22;5223;50.924;13.338;2022-09-27T08:28:40;15.00;99.90
10354;DHT22;5223;50.924;13.338;2022-09-27T08:31:15;14.40;99.90
10354;DHT22;5223;50.924;13.338;2022-09-27T08:33:43;13.60;99.90
10354;DHT22;5223;50.924;13.338;2022-09-27T08:36:10;12.20;99.90
10354;DHT22;5223;50.924;13.338;2022-09-27T08:38:38;11.60;99.90
10354;DHT22;5223;50.924;13.338;2022-09-27T08:41:18;11.50;99.90
10354;DHT22;5223;50.924;13.338;2022-09-27T08:44:02;11.40;99.90
10354;DHT22;5223;50.924;13.338;2022-09-27T08:46:38;11.60;99.90
10354;DHT22;5223;50.924;13.338;2022-09-27T08:49:11;11.90;99.90
10354;DHT22;5223;50.924;13.338;2022-09-27T08:51:40;13.10;99.90
10354;DHT22;5223;50.924;13.338;2022-09-27T08:54:13;13.10;99.90
10354;DHT22;5223;50.924;13.338;2022-09-27T08:56:45;13.30;99.90
10354;DHT22;5223;50.924;13.338;2022-09-27T08:59:15;13.20;99.90
10354;DHT22;5223;50.924;13.338;2022-09-27T09:01:46;13.30;99.90
10354;DHT22;5223;50.924;13.338;2022-09-27T09:04:19;13.20;99.90
10354;DHT22;5223;50.924;13.338;2022-09-27T09:06:51;13.40;99.90
10354;DHT22;5223;50.924;13.338;2022-09-27T09:09:30;13.10;99.90
10354;DHT22;5223;50.924;13.338;2022-09-27T09:12:15;14.20;99.90
10354;DHT22;5223;50.924;13.338;2022-09-27T09:15:15;13.90;99.90
10354;DHT22;5223;50.924;13.338;2022-09-27T09:17:58;13.20;99.90
10354;DHT22;5223;50.924;13.338;2022-09-27T09:20:36;13.10;99.90
10354;DHT22;5223;50.924;13.338;2022-09-27T09:23:36;13.40;99.90
10354;DHT22;5223;50.924;13.338;2022-09-27T09:26:13;15.50;99.90
10354;DHT22;5223;50.924;13.338;2022-09-27T09:31:40;13.50;99.90
10354;DHT22;5223;50.924;13.338;2022-09-27T09:34:12;13.80;99.90
10354;DHT22;5223;50.924;13.338;2022-09-27T09:36:44;15.10;99.90
10354;DHT22;5223;50.924;13.338;2022-09-27T09:39:17;15.20;99.90
10354;DHT22;5223;50.924;13.338;2022-09-27T09:44:48;14.50;99.90
10354;DHT22;5223;50.924;13.338;2022-09-27T09:47:30;14.50;99.90
10354;DHT22;5223;50.924;13.338;2022-09-27T09:50:04;14.00;99.90
10354;DHT22;5223;50.924;13.338;2022-09-27T09:52:50;13.80;99.90
10354;DHT22;5223;50.924;13.338;2022-09-27T09:55:21;13.50;99.90
10354;DHT22;5223;50.924;13.338;2022-09-27T09:58:00;14.70;99.90
10354;DHT22;5223;50.924;13.338;2022-09-27T10:00:31;14.90;99.90
10354;DHT22;5223;50.924;13.338;2022-09-27T10:03:03;14.00;99.90
10354;DHT22;5223;50.924;13.338;2022-09-27T10:05:30;13.50;99.90
10354;DHT22;5223;50.924;13.338;2022-09-27T10:08:03;13.30;99.90
10354;DHT22;5223;50.924;13.338;2022-09-27T10:10:31;13.20;99.90
10354;DHT22;5223;50.924;13.338;2022-09-27T10:12:58;13.00;99.90
10354;DHT22;5223;50.924;13.338;2022-09-27T10:15:29;12.70;99.90
10354;DHT22;5223;50.924;13.338;2022-09-27T10:17:58;12.10;99.90
10354;DHT22;5223;50.924;13.338;2022-09-27T10:20:30;11.50;99.90
10354;DHT22;5223;50.924;13.338;2022-09-27T10:23:04;11.30;99.90
10354;DHT22;5223;50.924;13.338;2022-09-27T10:25:45;11.20;99.90
10354;DHT22;5223;50.924;13.338;2022-09-27T10:28:26;11.30;99.90
10354;DHT22;5223;50.924;13.338;2022-09-27T10:31:00;11.10;99.90
10354;DHT22;5223;50.924;13.338;2022-09-27T10:33:29;11.00;99.90
10354;DHT22;5223;50.924;13.338;2022-09-27T10:35:57;10.90;99.90
10354;DHT22;5223;50.924;13.338;2022-09-27T10:38:28;10.70;99.90
10354;DHT22;5223;50.924;13.338;2022-09-27T10:40:56;10.60;99.90
10354;DHT22;5223;50.924;13.338;2022-09-27T10:43:27;10.90;99.90
10354;DHT22;5223;50.924;13.338;2022-09-27T10:46:08;11.10;99.90
10354;DHT22;5223;50.924;13.338;2022-09-27T10:48:39;11.10;99.90
10354;DHT22;5223;50.924;13.338;2022-09-27T10:51:17;10.70;99.90
10354;DHT22;5223;50.924;13.338;2022-09-27T10:53:48;10.60;99.90
10354;DHT22;5223;50.924;13.338;2022-09-27T10:56:21;10.70;99.90
10354;DHT22;5223;50.924;13.338;2022-09-27T10:58:55;10.60;99.90
10354;DHT22;5223;50.924;13.338;2022-09-27T11:01:38;10.60;99.90
10354;DHT22;5223;50.924;13.338;2022-09-27T11:04:06;10.50;99.90
10354;DHT22;5223;50.924;13.338;2022-09-27T11:06:33;10.60;99.90
10354;DHT22;5223;50.924;13.338;2022-09-27T11:09:16;10.60;99.90
10354;DHT22;5223;50.924;13.338;2022-09-27T11:11:44;10.90;99.90
10354;DHT22;5223;50.924;13.338;2022-09-27T11:14:20;11.00;99.90
10354;DHT22;5223;50.924;13.338;2022-09-27T11:17:07;11.20;99.90
10354;DHT22;5223;50.924;13.338;2022-09-27T11:19:55;11.50;99.90
10354;DHT22;5223;50.924;13.338;2022-09-27T11:22:39;11.60;99.90
10354;DHT22;5223;50.924;13.338;2022-09-27T11:25:19;12.00;99.90
10354;DHT22;5223;50.924;13.338;2022-09-27T11:28:00;12.10;99.90
10354;DHT22;5223;50.924;13.338;2022-09-27T11:30:35;12.10;99.90
10354;DHT22;5223;50.924;13.338;2022-09-27T11:36:04;11.70;99.90
10354;DHT22;5223;50.924;13.338;2022-09-27T11:38:44;11.40;99.90
10354;DHT22;5223;50.924;13.338;2022-09-27T11:41:26;11.30;99.90
10354;DHT22;5223;50.924;13.338;2022-09-27T11:46:53;11.50;99.90
10354;DHT22;5223;50.924;13.338;2022-09-27T11:52:40;12.00;99.90
10354;DHT22;5223;50.924;13.338;2022-09-27T11:55:18;11.80;99.90
10354;DHT22;5223;50.924;13.338;2022-09-27T11:57:50;11.60;99.90
10354;DHT22;5223;50.924;13.338;2022-09-27T12:00:19;11.40;99.90
10354;DHT22;5223;50.924;13.338;2022-09-27T12:03:11;11.10;99.90
10354;DHT22;5223;50.924;13.338;2022-09-27T12:05:53;11.20;99.90
10354;DHT22;5223;50.924;13.338;2022-09-27T12:08:34;11.00;99.90
10354;DHT22;5223;50.924;13.338;2022-09-27T12:11:09;10.80;99.90
10354;DHT22;5223;50.924;13.338;2022-09-27T12:13:42;10.70;99.90
10354;DHT22;5223;50.924;13.338;2022-09-27T12:16:15;10.50;99.90
10354;DHT22;5223;50.924;13.338;2022-09-27T12:18:42;10.50;99.90
10354;DHT22;5223;50.924;13.338;2022-09-27T12:21:12;10.40;99.90
10354;DHT22;5223;50.924;13.338;2022-09-27T12:23:42;10.60;99.90
10354;DHT22;5223;50.924;13.338;2022-09-27T12:26:13;11.00;99.90
10354;DHT22;5223;50.924;13.338;2022-09-27T12:28:47;11.20;99.90
10354;DHT22;5223;50.924;13.338;2022-09-27T12:31:20;11.10;99.90
10354;DHT22;5223;50.924;13.338;2022-09-27T12:33:53;11.40;99.90
10354;DHT22;5223;50.924;13.338;2022-09-27T12:36:27;11.80;99.90
10354;DHT22;5223;50.924;13.338;2022-09-27T12:39:03;13.00;99.90
10354;DHT22;5223;50.924;13.338;2022-09-27T12:41:36;13.50;99.90
10354;DHT22;5223;50.924;13.338;2022-09-27T12:44:04;13.00;99.90
10354;DHT22;5223;50.924;13.338;2022-09-27T12:46:39;12.60;99.90
10354;DHT22;5223;50.924;13.338;2022-09-27T12:49:13;12.00;99.90
10354;DHT22;5223;50.924;13.338;2022-09-27T12:51:46;12.10;99.90
10354;DHT22;5223;50.924;13.338;2022-09-27T12:54:56;12.00;99.90
10354;DHT22;5223;50.924;13.338;2022-09-27T12:57:35;12.40;99.90
10354;DHT22;5223;50.924;13.338;2022-09-27T13:00:11;13.30;99.90
10354;DHT22;5223;50.924;13.338;2022-09-27T13:02:56;13.90;99.90
10354;DHT22;5223;50.924;13.338;2022-09-27T13:05:52;14.30;99.90
10354;DHT22;5223;50.924;13.338;2022-09-27T13:08:41;14.50;99.90
10354;DHT22;5223;50.924;13.338;2022-09-27T13:11:22;15.30;99.90
10354;DHT22;5223;50.924;13.338;2022-09-27T13:13:54;15.10;99.90
10354;DHT22;5223;50.924;13.338;2022-09-27T13:16:23;15.50;99.90
10354;DHT22;5223;50.924;13.338;2022-09-27T13:18:56;15.80;99.90
10354;DHT22;5223;50.924;13.338;2022-09-27T13:21:57;16.20;99.90
10354;DHT22;5223;50.924;13.338;2022-09-27T13:24:46;15.90;99.90
10354;DHT22;5223;50.924;13.338;2022-09-27T13:27:38;14.70;99.90
10354;DHT22;5223;50.924;13.338;2022-09-27T13:33:31;13.80;99.90
10354;DHT22;5223;50.924;13.338;2022-09-27T13:36:23;14.50;99.90
10354;DHT22;5223;50.924;13.338;2022-09-27T13:39:01;14.60;99.90
10354;DHT22;5223;50.924;13.338;2022-09-27T13:41:38;14.90;99.90
10354;DHT22;5223;50.924;13.338;2022-09-27T13:44:17;13.90;99.90
10354;DHT22;5223;50.924;13.338;2022-09-27T13:46:54;14.50;99.90
10354;DHT22;5223;50.924;13.338;2022-09-27T13:49:26;14.40;99.90
10354;DHT22;5223;50.924;13.338;2022-09-27T13:51:59;14.20;99.90
10354;DHT22;5223;50.924;13.338;2022-09-27T13:54:49;13.80;99.90
10354;DHT22;5223;50.924;13.338;2022-09-27T14:00:21;13.20;99.90
10354;DHT22;5223;50.924;13.338;2022-09-27T14:02:57;12.70;99.90
10354;DHT22;5223;50.924;13.338;2022-09-27T14:05:29;12.50;99.90
10354;DHT22;5223;50.924;13.338;2022-09-27T14:08:00;12.00;99.90
10354;DHT22;5223;50.924;13.338;2022-09-27T14:10:29;11.80;99.90
10354;DHT22;5223;50.924;13.338;2022-09-27T14:12:59;11.80;99.90
10354;DHT22;5223;50.924;13.338;2022-09-27T14:15:30;11.60;99.90
10354;DHT22;5223;50.924;13.338;2022-09-27T14:17:58;11.40;99.90
10354;DHT22;5223;50.924;13.338;2022-09-27T14:20:30;11.50;99.90
10354;DHT22;5223;50.924;13.338;2022-09-27T14:22:58;11.80;99.90
10354;DHT22;5223;50.924;13.338;2022-09-27T14:25:26;13.20;99.90
10354;DHT22;5223;50.924;13.338;2022-09-27T14:27:54;14.50;99.90
10354;DHT22;5223;50.924;13.338;2022-09-27T14:30:24;15.70;99.90
10354;DHT22;5223;50.924;13.338;2022-09-27T14:33:03;15.80;99.90
10354;DHT22;5223;50.924;13.338;2022-09-27T14:35:33;14.90;99.90
10354;DHT22;5223;50.924;13.338;2022-09-27T14:38:19;14.50;99.90
10354;DHT22;5223;50.924;13.338;2022-09-27T14:40:57;14.00;99.90
10354;DHT22;5223;50.924;13.338;2022-09-27T14:43:24;13.40;99.90
10354;DHT22;5223;50.924;13.338;2022-09-27T14:45:58;13.00;99.90
10354;DHT22;5223;50.924;13.338;2022-09-27T14:48:29;12.80;99.90
10354;DHT22;5223;50.924;13.338;2022-09-27T14:50:58;12.70;99.90
10354;DHT22;5223;50.924;13.338;2022-09-27T14:53:29;12.20;99.90
10354;DHT22;5223;50.924;13.338;2022-09-27T14:55:58;11.40;99.90
10354;DHT22;5223;50.924;13.338;2022-09-27T14:58:26;10.70;99.90
10354;DHT22;5223;50.924;13.338;2022-09-27T15:00:56;10.20;99.90
10354;DHT22;5223;50.924;13.338;2022-09-27T15:03:28;10.00;99.90
10354;DHT22;5223;50.924;13.338;2022-09-27T15:05:56;9.90;99.90
10354;DHT22;5223;50.924;13.338;2022-09-27T15:08:27;9.70;99.90
10354;DHT22;5223;50.924;13.338;2022-09-27T15:10:58;9.70;99.90
10354;DHT22;5223;50.924;13.338;2022-09-27T15:13:25;9.70;99.90
10354;DHT22;5223;50.924;13.338;2022-09-27T15:23:23;10.50;99.90
10354;DHT22;5223;50.924;13.338;2022-09-27T15:26:21;10.60;99.90
10354;DHT22;5223;50.924;13.338;2022-09-27T15:29:18;10.50;99.90
10354;DHT22;5223;50.924;13.338;2022-09-27T15:32:28;10.40;99.90
10354;DHT22;5223;50.924;13.338;2022-09-27T15:35:30;10.40;99.90
10354;DHT22;5223;50.924;13.338;2022-09-27T16:12:43;8.20;99.90
